Startpagina
METAR-TAF:

METAR-TAF

Vliegvelden :

Luchthaven Diori Hamani

Niamey, Niger

breedte: 13-29N, lengte: 002-10E, hoogte: 223 m

Actueel weer

Dit bericht is 31 minuten geleden gemaakt, om 23:00 UTC
Wind 7 kt uit het zuiden
Temperatuur 33°C
Vochtigheid 34%
Druk 1011 hPa
Zicht 10 km of meer
geen wolken onder 1500 m en geen cumulonimbus

METAR: DRRN 262300Z 17007KT CAVOK 33/15 Q1011 NOSIG

Tijdstip: 00:31 (23:31 UTC)

Verwachting

Dit bericht is 6 uur en het 31 minuten geleden gemaakt, om 17:00 UTC
Verwachting geldig van 26 om 18 UTC tot 27 om 24 UTC
Wind 7 kt uit het westzuidwesten
Zicht: 8000 m
Tijdelijke
van 26 om 18 UTC tot 26 om 21 UTC
Zicht: 4000 m
verspreid stof
Kans 40% :
Tijdelijke
van 27 om 02 UTC tot 27 om 06 UTC
Wind 20 kt uit het oostnoordoosten met uitschieters tot 40 kt
Zicht: 1500 m
Verspreide wolken op 3300 ft
Weinig wolken op 4000 ft, Cumulonimbus.
Stuifstof, onweer, regen

TAF: DRRN 261700Z 2618/2724 24007KT 8000 NSC TEMPO 2618/2621 4000 DU PROB40 TEMPO 2702/2706 06020G40KT 1500 BLDU TSRA SCT033 FEW040CB

Waarnemingen en weersverwachtingen van meer dan 4000 vliegvelden (METAR en TAF).

De beschikbare stations zijn de gele en rode punten op de kaart.

Ga met uw muis naar het station om de naam te zien.

Klik dan om waarnemingen en weersverwachtingen te zien.

kaart wijzigen: klik op de groene knoppen met een zwart kruis om in te zoomen, op de groene knop met een streepje om uit te zoomen of op de groene pijlen voor aangrenzende kaarten.


METAR-TAF: